createdAt,value
2017-12-13T00:00:53.582Z,75.10
2017-12-13T00:03:21.206Z,75.10
2017-12-13T00:05:48.824Z,74.90
2017-12-13T00:08:16.673Z,74.70
2017-12-13T00:10:44.288Z,74.80
2017-12-13T00:13:12.717Z,75.00
2017-12-13T00:15:40.363Z,75.00
2017-12-13T00:18:07.971Z,74.80
2017-12-13T00:20:36.357Z,74.60
2017-12-13T00:23:05.009Z,75.10
2017-12-13T00:25:32.618Z,74.10
2017-12-13T00:28:00.994Z,75.00
2017-12-13T00:30:29.434Z,74.70
2017-12-13T00:32:57.634Z,74.60
2017-12-13T00:35:26.800Z,75.00
2017-12-13T00:37:54.676Z,75.00
2017-12-13T00:40:22.329Z,74.70
2017-12-13T00:42:50.134Z,74.60
2017-12-13T00:45:18.707Z,75.00
2017-12-13T00:47:46.336Z,75.00
2017-12-13T00:50:14.211Z,74.60
2017-12-13T00:52:42.011Z,74.20
2017-12-13T00:55:10.397Z,73.90
2017-12-13T00:57:39.115Z,74.20
2017-12-13T01:00:06.800Z,74.10
2017-12-13T01:02:34.670Z,74.30
2017-12-13T01:05:02.302Z,74.60
2017-12-13T01:07:30.143Z,74.60
2017-12-13T01:09:58.693Z,74.50
2017-12-13T01:12:26.370Z,74.50
2017-12-13T01:14:54.323Z,74.60
2017-12-13T01:17:21.956Z,74.10
2017-12-13T01:19:49.611Z,74.20
2017-12-13T01:22:17.248Z,74.20
2017-12-13T01:24:45.630Z,73.90
2017-12-13T01:27:14.023Z,74.10
2017-12-13T01:29:41.685Z,74.10
2017-12-13T01:32:09.307Z,73.90
2017-12-13T01:34:36.934Z,74.40
2017-12-13T01:37:04.581Z,74.40
2017-12-13T01:39:32.202Z,73.80
2017-12-13T01:42:00.620Z,74.20
2017-12-13T01:44:28.243Z,74.10
2017-12-13T01:46:55.871Z,74.20
2017-12-13T01:49:23.532Z,74.40
2017-12-13T01:51:51.502Z,74.20
2017-12-13T01:54:19.366Z,74.20
2017-12-13T01:56:47.032Z,73.80
2017-12-13T01:59:14.674Z,73.90
2017-12-13T02:01:42.458Z,74.10
2017-12-13T02:04:10.135Z,73.50
2017-12-13T02:06:37.768Z,74.00
2017-12-13T02:09:05.459Z,73.70
2017-12-13T02:11:33.086Z,73.80
2017-12-13T02:14:01.685Z,74.00
2017-12-13T02:16:29.587Z,73.90
2017-12-13T02:18:57.247Z,74.00
2017-12-13T02:21:24.979Z,73.80
2017-12-13T02:23:52.646Z,73.70
2017-12-13T02:26:20.354Z,74.00
2017-12-13T02:28:48.892Z,73.60
2017-12-13T02:31:16.556Z,73.60
2017-12-13T02:33:44.223Z,73.60
2017-12-13T02:36:11.851Z,73.70
2017-12-13T02:38:39.588Z,73.50
2017-12-13T02:41:07.998Z,73.30
2017-12-13T02:43:35.664Z,73.20
2017-12-13T02:46:03.349Z,73.30
2017-12-13T02:48:31.419Z,73.30
2017-12-13T02:50:59.111Z,73.60
2017-12-13T02:53:26.852Z,73.30
2017-12-13T02:55:54.519Z,73.30
2017-12-13T02:58:22.235Z,73.00
2017-12-13T03:00:50.712Z,73.40
2017-12-13T03:03:19.090Z,73.10
2017-12-13T03:05:47.635Z,73.10
2017-12-13T03:08:15.277Z,72.90
2017-12-13T03:10:42.955Z,72.90
2017-12-13T03:13:11.367Z,73.20
2017-12-13T03:15:39.806Z,72.70
2017-12-13T03:18:07.565Z,72.70
2017-12-13T03:20:35.210Z,72.80
2017-12-13T03:23:02.861Z,73.20
2017-12-13T03:25:30.482Z,72.90
2017-12-13T03:27:58.146Z,72.80
2017-12-13T03:30:25.763Z,72.80
2017-12-13T03:32:54.361Z,72.90
2017-12-13T03:35:22.045Z,72.90
2017-12-13T03:37:49.922Z,73.30
2017-12-13T03:40:18.303Z,72.90
2017-12-13T03:42:45.959Z,73.00
2017-12-13T03:45:13.596Z,73.00
2017-12-13T03:47:41.206Z,73.00
2017-12-13T03:50:09.606Z,73.10
2017-12-13T03:52:37.223Z,73.10
2017-12-13T03:55:05.147Z,73.00
2017-12-13T03:57:32.799Z,72.90
2017-12-13T04:00:00.608Z,72.80
2017-12-13T04:02:29.037Z,72.90
2017-12-13T04:04:56.693Z,72.90
2017-12-13T04:07:24.390Z,73.00
2017-12-13T04:09:52.056Z,73.30
2017-12-13T04:12:19.715Z,72.80
2017-12-13T04:14:47.394Z,73.00
2017-12-13T04:17:15.068Z,73.00
2017-12-13T04:19:42.923Z,73.10
2017-12-13T04:22:10.562Z,72.90
2017-12-13T04:24:38.219Z,72.90
2017-12-13T04:27:05.844Z,72.80
2017-12-13T04:29:34.286Z,73.20
2017-12-13T04:32:01.948Z,73.10
2017-12-13T04:34:29.615Z,72.70
2017-12-13T04:36:57.226Z,72.60
2017-12-13T04:39:24.874Z,72.70
2017-12-13T04:41:53.256Z,72.70
2017-12-13T04:44:21.646Z,72.70
2017-12-13T04:46:50.051Z,72.60
2017-12-13T04:49:17.714Z,72.50
2017-12-13T04:51:45.367Z,72.60
2017-12-13T04:54:13.061Z,72.60
2017-12-13T04:56:40.674Z,72.70
2017-12-13T04:59:09.115Z,72.60
2017-12-13T05:01:36.819Z,72.50
2017-12-13T05:04:04.529Z,72.90
2017-12-13T05:06:32.172Z,72.70
2017-12-13T05:08:59.791Z,72.60
2017-12-13T05:11:28.347Z,72.90
2017-12-13T05:13:55.998Z,72.70
2017-12-13T05:16:23.671Z,72.70
2017-12-13T05:18:51.302Z,72.60
2017-12-13T05:21:18.982Z,72.60
2017-12-13T05:23:46.606Z,72.50
2017-12-13T05:26:14.262Z,72.90
2017-12-13T05:28:42.655Z,72.90
2017-12-13T05:31:10.275Z,72.70
2017-12-13T05:33:39.438Z,72.50
2017-12-13T05:36:07.076Z,72.50
2017-12-13T05:38:34.717Z,72.60
2017-12-13T05:41:03.109Z,72.70
2017-12-13T05:43:30.774Z,72.60
2017-12-13T05:45:58.382Z,72.50
2017-12-13T05:48:26.858Z,72.70
2017-12-13T05:50:54.615Z,72.70
2017-12-13T05:53:22.226Z,73.50
2017-12-13T05:55:50.648Z,72.50
2017-12-13T05:58:18.259Z,72.40
2017-12-13T06:00:46.679Z,72.30
2017-12-13T06:03:14.295Z,72.30
2017-12-13T06:05:41.902Z,72.40
2017-12-13T06:08:09.591Z,73.50
2017-12-13T06:10:37.247Z,72.50
2017-12-13T06:13:04.913Z,72.50
2017-12-13T06:15:32.547Z,72.30
2017-12-13T06:18:00.347Z,72.00
2017-12-13T06:20:28.004Z,72.40
2017-12-13T06:22:55.680Z,72.40
2017-12-13T06:25:23.291Z,72.50
2017-12-13T06:27:50.903Z,72.50
2017-12-13T06:30:19.312Z,72.40
2017-12-13T06:32:47.859Z,72.50
2017-12-13T06:35:15.504Z,72.40
2017-12-13T06:37:43.231Z,72.30
2017-12-13T06:40:11.669Z,72.00
2017-12-13T06:42:39.284Z,72.00
2017-12-13T06:45:06.971Z,71.90
2017-12-13T06:47:34.583Z,72.10
2017-12-13T06:50:02.980Z,72.30
2017-12-13T06:52:30.633Z,72.10
2017-12-13T06:54:59.022Z,72.20
2017-12-13T06:57:26.670Z,72.10
2017-12-13T06:59:55.108Z,72.30
2017-12-13T07:02:22.735Z,72.30
2017-12-13T07:04:50.370Z,72.30
2017-12-13T07:07:18.815Z,72.40
2017-12-13T07:09:46.466Z,72.30
2017-12-13T07:12:14.070Z,72.40
2017-12-13T07:14:42.611Z,72.90
2017-12-13T07:17:10.215Z,71.90
2017-12-13T07:19:38.681Z,72.20
2017-12-13T07:22:06.311Z,72.10
2017-12-13T07:24:33.917Z,72.50
2017-12-13T07:27:02.366Z,72.40
2017-12-13T07:29:29.988Z,72.40
2017-12-13T07:31:57.651Z,72.40
2017-12-13T07:34:25.268Z,72.40
2017-12-13T07:36:53.647Z,72.20
2017-12-13T07:39:22.209Z,72.20
2017-12-13T07:41:50.640Z,72.30
2017-12-13T07:44:19.166Z,72.30
2017-12-13T07:46:46.798Z,72.20
2017-12-13T07:49:14.410Z,72.00
2017-12-13T07:51:42.122Z,72.30
2017-12-13T07:54:09.728Z,72.50
2017-12-13T07:56:37.373Z,72.70
2017-12-13T07:59:05.173Z,72.60
2017-12-13T08:01:32.778Z,72.40
2017-12-13T08:04:00.411Z,72.30
2017-12-13T08:06:28.943Z,72.60
2017-12-13T08:08:56.582Z,72.50
2017-12-13T08:11:24.367Z,72.40
2017-12-13T08:13:51.995Z,72.30
2017-12-13T08:16:20.358Z,71.90
2017-12-13T08:18:48.755Z,71.50
2017-12-13T08:21:16.391Z,71.40
2017-12-13T08:23:44.039Z,71.70
2017-12-13T08:26:13.168Z,71.90
2017-12-13T08:28:41.596Z,72.30
2017-12-13T08:31:09.233Z,72.30
2017-12-13T08:33:36.842Z,72.20
2017-12-13T08:36:05.306Z,72.00
2017-12-13T08:38:32.917Z,72.00
2017-12-13T08:41:00.636Z,72.40
2017-12-13T08:43:28.298Z,72.40
2017-12-13T08:45:56.164Z,72.20
2017-12-13T08:48:23.811Z,72.00
2017-12-13T08:50:51.496Z,71.60
2017-12-13T08:53:19.931Z,72.20
2017-12-13T08:55:47.547Z,72.20
2017-12-13T08:58:15.214Z,71.90
2017-12-13T09:00:42.955Z,72.10
2017-12-13T09:03:10.710Z,72.30
2017-12-13T09:05:38.363Z,72.00
2017-12-13T09:08:06.256Z,72.30
2017-12-13T09:10:33.916Z,72.40
2017-12-13T09:13:01.550Z,73.20
2017-12-13T09:15:29.204Z,72.40
2017-12-13T09:17:57.220Z,72.20
2017-12-13T09:20:25.761Z,72.20
2017-12-13T09:22:53.545Z,72.20
2017-12-13T09:25:21.329Z,71.80
2017-12-13T09:27:49.725Z,72.50
2017-12-13T09:30:18.175Z,72.50
2017-12-13T09:32:46.043Z,72.30
2017-12-13T09:35:13.712Z,72.20
2017-12-13T09:37:41.340Z,72.30
2017-12-13T09:40:08.956Z,71.90
2017-12-13T09:42:37.396Z,72.10
2017-12-13T09:45:05.042Z,72.10
2017-12-13T09:47:32.725Z,72.70
2017-12-13T09:50:00.364Z,72.50
2017-12-13T09:52:28.036Z,72.60
2017-12-13T09:54:55.740Z,72.30
2017-12-13T09:57:23.481Z,72.70
2017-12-13T09:59:51.142Z,73.80
2017-12-13T10:02:18.773Z,72.80
2017-12-13T10:04:46.572Z,72.70
2017-12-13T10:07:14.203Z,72.90
2017-12-13T10:09:41.809Z,72.80
2017-12-13T10:12:09.672Z,72.50
2017-12-13T10:14:37.321Z,72.60
2017-12-13T10:17:04.978Z,72.70
2017-12-13T10:19:32.614Z,73.20
2017-12-13T10:22:00.269Z,73.20
2017-12-13T10:24:28.812Z,73.30
2017-12-13T10:26:56.575Z,73.20
2017-12-13T10:29:25.784Z,73.20
2017-12-13T10:31:53.444Z,73.10
2017-12-13T10:34:21.096Z,73.10
2017-12-13T10:36:48.739Z,73.20
2017-12-13T10:39:16.729Z,73.30
2017-12-13T10:41:44.351Z,73.10
2017-12-13T10:44:11.997Z,73.40
2017-12-13T10:46:39.694Z,72.90
2017-12-13T10:49:07.368Z,72.80
2017-12-13T10:51:35.025Z,72.80
2017-12-13T10:54:02.785Z,72.80
2017-12-13T10:56:30.417Z,72.80
2017-12-13T10:58:58.108Z,72.60
2017-12-13T11:01:25.800Z,72.10
2017-12-13T11:03:54.919Z,72.60
2017-12-13T11:06:23.577Z,73.00
2017-12-13T11:08:51.974Z,73.40
2017-12-13T11:11:20.439Z,73.00
2017-12-13T11:13:49.620Z,72.60
2017-12-13T11:16:17.256Z,72.60
2017-12-13T11:18:44.976Z,72.30
2017-12-13T11:21:12.608Z,72.10
2017-12-13T11:23:42.112Z,71.70
2017-12-13T11:26:09.768Z,72.60
2017-12-13T11:28:37.568Z,72.50
2017-12-13T11:31:06.116Z,72.50
2017-12-13T11:33:33.765Z,72.30
2017-12-13T11:36:01.484Z,72.10
2017-12-13T11:38:29.858Z,72.10
2017-12-13T11:40:57.533Z,72.10
2017-12-13T11:43:25.992Z,72.60
2017-12-13T11:45:53.691Z,72.30
2017-12-13T11:48:21.392Z,72.10
2017-12-13T11:50:49.039Z,72.10
2017-12-13T11:53:16.704Z,72.30
2017-12-13T11:55:44.313Z,72.40
2017-12-13T11:58:11.961Z,72.20
2017-12-13T12:00:40.397Z,71.90
2017-12-13T12:03:08.045Z,71.80
2017-12-13T12:05:36.071Z,71.80
2017-12-13T12:08:04.772Z,71.70
2017-12-13T12:10:32.734Z,71.60
2017-12-13T12:13:02.336Z,72.00
2017-12-13T12:15:30.304Z,72.00
2017-12-13T12:17:58.237Z,72.00
2017-12-13T12:20:26.148Z,72.10
2017-12-13T12:22:53.830Z,71.90
2017-12-13T12:25:22.247Z,72.10
2017-12-13T12:27:49.870Z,72.00
2017-12-13T12:30:26.001Z,72.00
2017-12-13T12:32:53.858Z,72.00
2017-12-13T12:35:22.661Z,72.00
2017-12-13T12:37:50.307Z,72.50
2017-12-13T12:40:17.970Z,72.00
2017-12-13T12:42:45.571Z,72.00
2017-12-13T12:45:14.036Z,71.50
2017-12-13T12:47:41.648Z,71.50
2017-12-13T12:50:09.296Z,71.90
2017-12-13T12:52:36.923Z,71.80
2017-12-13T12:55:05.297Z,71.90
2017-12-13T12:57:33.732Z,72.40
2017-12-13T13:00:01.347Z,72.30
2017-12-13T13:02:29.078Z,71.90
2017-12-13T13:04:56.695Z,71.80
2017-12-13T13:07:25.128Z,72.60
2017-12-13T13:09:52.754Z,72.40
2017-12-13T13:12:20.453Z,72.50
2017-12-13T13:14:48.074Z,72.70
2017-12-13T13:17:15.706Z,72.60
2017-12-13T13:19:43.372Z,72.10
2017-12-13T13:22:10.998Z,72.20
2017-12-13T13:24:38.677Z,72.40
2017-12-13T13:27:06.528Z,72.50
2017-12-13T13:29:34.205Z,72.30
2017-12-13T13:32:01.869Z,72.50
2017-12-13T13:34:29.610Z,72.20
2017-12-13T13:36:57.286Z,72.50
2017-12-13T13:39:24.987Z,72.30
2017-12-13T13:41:53.397Z,72.30
2017-12-13T13:44:21.183Z,72.30
2017-12-13T13:46:48.876Z,72.50
2017-12-13T13:49:17.342Z,72.40
2017-12-13T13:51:45.021Z,72.30
2017-12-13T13:54:12.764Z,72.50
2017-12-13T13:56:40.403Z,72.70
2017-12-13T13:59:08.079Z,72.90
2017-12-13T14:01:35.717Z,72.70
2017-12-13T14:04:03.378Z,72.50
2017-12-13T14:06:31.160Z,72.60
2017-12-13T14:08:58.812Z,72.80
2017-12-13T14:11:26.417Z,73.00
2017-12-13T14:13:55.600Z,72.50
2017-12-13T14:16:23.224Z,72.50
2017-12-13T14:18:50.869Z,72.70
2017-12-13T14:21:18.678Z,72.80
2017-12-13T14:23:46.336Z,72.50
2017-12-13T14:26:13.986Z,72.80
2017-12-13T14:28:41.607Z,73.20
2017-12-13T14:31:10.022Z,73.00
2017-12-13T14:33:37.705Z,72.90
2017-12-13T14:36:05.318Z,72.90
2017-12-13T14:38:33.729Z,72.90
2017-12-13T14:41:01.356Z,72.80
2017-12-13T14:43:29.767Z,72.90
2017-12-13T14:45:57.388Z,72.90
2017-12-13T14:48:25.810Z,72.90
2017-12-13T14:50:53.420Z,72.80
2017-12-13T14:53:21.062Z,73.00
2017-12-13T14:55:48.670Z,73.20
2017-12-13T14:58:17.208Z,73.80
2017-12-13T15:00:44.853Z,73.80
2017-12-13T15:03:12.536Z,73.30
2017-12-13T15:05:40.188Z,73.10
2017-12-13T15:08:07.804Z,73.20
2017-12-13T15:10:36.206Z,73.30
2017-12-13T15:13:03.897Z,73.20
2017-12-13T15:15:31.531Z,73.20
2017-12-13T15:17:59.211Z,73.00
2017-12-13T15:20:34.771Z,72.90
2017-12-13T15:23:02.395Z,73.40
2017-12-13T15:25:30.031Z,73.40
2017-12-13T15:27:58.588Z,73.20
2017-12-13T15:30:27.706Z,73.30
2017-12-13T15:32:56.152Z,73.10
2017-12-13T15:35:23.765Z,73.00
2017-12-13T15:37:52.180Z,73.50
2017-12-13T15:40:19.959Z,73.40
2017-12-13T15:42:47.777Z,73.50
2017-12-13T15:45:15.449Z,73.60
2017-12-13T15:47:43.120Z,73.60
2017-12-13T15:50:10.774Z,73.40
2017-12-13T15:52:38.476Z,73.60
2017-12-13T15:55:06.229Z,73.90
2017-12-13T15:57:33.862Z,73.90
2017-12-13T16:00:01.482Z,73.80
2017-12-13T16:02:29.130Z,73.60
2017-12-13T16:04:56.737Z,73.50
2017-12-13T16:07:24.399Z,73.30
2017-12-13T16:09:52.011Z,73.40
2017-12-13T16:12:19.675Z,73.20
2017-12-13T16:14:47.288Z,73.40
2017-12-13T16:17:14.924Z,73.40
2017-12-13T16:19:42.535Z,73.50
2017-12-13T16:22:10.193Z,73.50
2017-12-13T16:24:37.883Z,73.40
2017-12-13T16:27:05.507Z,73.50
2017-12-13T16:29:33.189Z,73.30
2017-12-13T16:32:00.809Z,73.40
2017-12-13T16:34:29.255Z,73.20
2017-12-13T16:36:56.892Z,73.20
2017-12-13T16:39:24.507Z,73.70
2017-12-13T16:41:52.925Z,73.40
2017-12-13T16:44:20.550Z,73.40
2017-12-13T16:46:48.979Z,73.20
2017-12-13T16:49:16.590Z,73.20
2017-12-13T16:51:45.009Z,73.30
2017-12-13T16:54:12.693Z,73.10
2017-12-13T16:56:40.334Z,73.20
2017-12-13T16:59:07.946Z,73.30
2017-12-13T17:01:35.588Z,73.30
2017-12-13T17:04:03.270Z,73.20
2017-12-13T17:06:31.681Z,73.30
2017-12-13T17:08:59.329Z,73.20
2017-12-13T17:11:27.699Z,73.30
2017-12-13T17:13:56.124Z,73.30
2017-12-13T17:16:23.748Z,73.30
2017-12-13T17:18:52.167Z,73.40
2017-12-13T17:21:19.789Z,73.30
2017-12-13T17:23:48.223Z,72.90
2017-12-13T17:26:15.883Z,72.80
2017-12-13T17:28:43.487Z,73.10
2017-12-13T17:31:12.027Z,73.10
2017-12-13T17:33:39.668Z,73.10
2017-12-13T17:36:07.476Z,73.00
2017-12-13T17:38:35.217Z,73.30
2017-12-13T17:41:02.830Z,73.00
2017-12-13T17:43:31.271Z,73.00
2017-12-13T17:45:59.127Z,72.90
2017-12-13T17:48:27.310Z,73.20
2017-12-13T17:50:54.912Z,72.70
2017-12-13T17:53:23.442Z,72.90
2017-12-13T17:55:51.119Z,72.70
2017-12-13T17:58:18.730Z,72.60
2017-12-13T18:00:47.159Z,72.60
2017-12-13T18:03:15.307Z,72.50
2017-12-13T18:05:42.958Z,72.20
2017-12-13T18:08:10.988Z,72.30
2017-12-13T18:10:38.690Z,72.30
2017-12-13T18:13:06.498Z,72.40
2017-12-13T18:15:34.252Z,72.40
2017-12-13T18:18:02.169Z,73.30
2017-12-13T18:20:30.317Z,72.70
2017-12-13T18:22:59.872Z,72.50
2017-12-13T18:25:27.487Z,72.20
2017-12-13T18:27:55.260Z,72.30
2017-12-13T18:30:22.990Z,72.40
2017-12-13T18:32:50.752Z,72.50
2017-12-13T18:35:18.439Z,72.30
2017-12-13T18:37:46.306Z,72.30
2017-12-13T18:40:13.949Z,72.50
2017-12-13T18:42:41.590Z,72.50
2017-12-13T18:45:09.265Z,72.70
2017-12-13T18:47:36.941Z,72.60
2017-12-13T18:50:04.622Z,72.80
2017-12-13T18:52:33.041Z,72.60
2017-12-13T18:55:00.934Z,72.60
2017-12-13T18:57:28.603Z,72.80
2017-12-13T18:59:56.514Z,72.80
2017-12-13T19:02:25.070Z,73.00
2017-12-13T19:04:54.248Z,73.00
2017-12-13T19:07:21.904Z,73.00
2017-12-13T19:09:49.596Z,72.50
2017-12-13T19:12:17.262Z,72.80
2017-12-13T19:14:44.907Z,73.20
2017-12-13T19:17:12.703Z,73.30
2017-12-13T19:19:40.432Z,73.20
2017-12-13T19:22:08.319Z,73.00
2017-12-13T19:24:36.097Z,73.00
2017-12-13T19:27:03.830Z,73.20
2017-12-13T19:29:31.470Z,73.30
2017-12-13T19:32:00.718Z,73.40
2017-12-13T19:34:29.834Z,73.40
2017-12-13T19:36:58.364Z,73.60
2017-12-13T19:39:26.239Z,73.60
2017-12-13T19:41:53.977Z,73.90
2017-12-13T19:44:21.631Z,74.00
2017-12-13T19:46:49.271Z,74.00
2017-12-13T19:49:17.679Z,74.80
2017-12-13T19:51:45.290Z,74.00
2017-12-13T19:54:13.045Z,74.40
2017-12-13T19:56:40.691Z,74.20
2017-12-13T19:59:08.337Z,74.40
2017-12-13T20:01:35.948Z,74.60
2017-12-13T20:04:04.127Z,74.40
2017-12-13T20:06:32.781Z,74.60
2017-12-13T20:09:00.743Z,74.60
2017-12-13T20:11:28.559Z,74.80
2017-12-13T20:13:58.025Z,74.60
2017-12-13T20:16:25.832Z,74.50
2017-12-13T20:18:54.876Z,74.70
2017-12-13T20:21:22.550Z,74.60
2017-12-13T20:23:51.072Z,74.80
2017-12-13T20:26:20.122Z,74.70
2017-12-13T20:28:48.200Z,74.70
2017-12-13T20:31:15.956Z,74.80
2017-12-13T20:33:43.571Z,74.90
2017-12-13T20:36:12.349Z,75.00
2017-12-13T20:38:41.156Z,74.70
2017-12-13T20:41:09.160Z,74.70
2017-12-13T20:43:36.808Z,75.00
2017-12-13T20:46:04.924Z,74.90
2017-12-13T20:48:33.073Z,74.70
2017-12-13T20:51:00.684Z,74.80
2017-12-13T20:53:29.113Z,74.80
2017-12-13T20:55:59.239Z,74.70
2017-12-13T20:58:26.861Z,74.90
2017-12-13T21:00:54.563Z,74.80
2017-12-13T21:03:22.180Z,74.90
2017-12-13T21:05:49.821Z,75.10
2017-12-13T21:08:18.237Z,74.80
2017-12-13T21:10:45.870Z,74.80
2017-12-13T21:13:14.261Z,75.00
2017-12-13T21:15:42.695Z,75.00
2017-12-13T21:18:10.310Z,74.90
2017-12-13T21:20:38.227Z,75.00
2017-12-13T21:23:06.107Z,74.80
2017-12-13T21:25:34.071Z,74.80
2017-12-13T21:28:02.109Z,75.00
2017-12-13T21:30:29.747Z,74.60
2017-12-13T21:32:57.561Z,74.70
2017-12-13T21:35:25.311Z,74.80
2017-12-13T21:37:53.071Z,74.60
2017-12-13T21:40:20.679Z,74.70
2017-12-13T21:42:49.221Z,74.50
2017-12-13T21:45:16.863Z,74.40
2017-12-13T21:47:44.544Z,74.60
2017-12-13T21:50:12.167Z,74.80
2017-12-13T21:52:39.794Z,74.50
2017-12-13T21:55:07.539Z,75.00
2017-12-13T21:57:35.402Z,75.00
2017-12-13T22:00:03.078Z,75.10
2017-12-13T22:02:30.690Z,75.00
2017-12-13T22:04:58.489Z,75.10
2017-12-13T22:07:26.114Z,74.90
2017-12-13T22:09:53.791Z,74.80
2017-12-13T22:12:21.422Z,74.50
2017-12-13T22:14:50.248Z,74.70
2017-12-13T22:17:18.930Z,74.60
2017-12-13T22:19:46.583Z,74.90
2017-12-13T22:22:14.237Z,74.70
2017-12-13T22:24:43.294Z,74.80
2017-12-13T22:27:10.947Z,74.50
2017-12-13T22:29:38.551Z,74.60
2017-12-13T22:32:06.935Z,74.70
2017-12-13T22:34:34.591Z,74.60
2017-12-13T22:37:02.964Z,74.50
2017-12-13T22:39:31.410Z,74.60
2017-12-13T22:41:59.087Z,74.50
2017-12-13T22:44:26.754Z,74.70
2017-12-13T22:46:54.586Z,74.80
2017-12-13T22:49:22.222Z,74.80
2017-12-13T22:51:49.853Z,74.70
2017-12-13T22:54:18.293Z,74.50
2017-12-13T22:56:45.955Z,74.50
2017-12-13T22:59:13.612Z,74.40
2017-12-13T23:01:41.282Z,74.50
2017-12-13T23:04:08.890Z,74.60
2017-12-13T23:06:37.325Z,74.90
2017-12-13T23:09:05.096Z,74.80
2017-12-13T23:11:32.711Z,74.40
2017-12-13T23:14:00.352Z,74.30
2017-12-13T23:16:28.915Z,74.40
2017-12-13T23:18:56.655Z,74.40
2017-12-13T23:21:24.280Z,74.20
2017-12-13T23:23:51.922Z,74.30
2017-12-13T23:26:20.696Z,74.50
2017-12-13T23:28:48.360Z,74.50
2017-12-13T23:31:16.104Z,74.20
2017-12-13T23:33:43.749Z,74.30
2017-12-13T23:36:11.624Z,74.00
2017-12-13T23:38:39.389Z,73.70
2017-12-13T23:41:06.996Z,73.80
2017-12-13T23:43:34.692Z,74.10
2017-12-13T23:46:02.670Z,73.90
2017-12-13T23:48:30.470Z,74.00
2017-12-13T23:50:58.395Z,73.90
2017-12-13T23:53:26.069Z,74.20
2017-12-13T23:55:53.704Z,74.10
2017-12-13T23:58:21.329Z,74.00
